Lombard, Illinois
Current Conditions -  °F | °C
As of 9:51 PM on Tuesday 27 Jan 2015 (Local Time) from KORD Reporting Station
Few Clouds Few Clouds  
Wind Chill: 22°   Ceiling: Unl
Heat Index: 22°   Visibility: 10mi
Dew Point: 17°   Wind: 0mph
Humidity: 82%   Direction: NA
Pressure: 30.25"   Gusts: NA
Location:  41.87°N, 88.01°W
Report Text: KORD 280351Z 00000KT 10SM FEW022 M06/M08 A3025 RMK AO2 SLP254 T10561083
Loading
Personal Weather Stations






























Interactive Weather Map New forecast layout! Learn more

10-Day Weather Forecast

Advertisements
Track Severe Weather on mobile